Time;durP1;ratioP1;P1;durP2;ratioP2;P2;SDS_P1;SDS_P2;PMS_P1;PMS_P2;Temp;Humidity;BMP_temperature;BMP_pressure;BME280_temperature;BME280_humidity;BME280_pressure;Samples;Min_cycle;Max_cycle;Signal;HPM_P1;HPM_P2
2022/03/01 00:01:09;;;;;;;21.10;12.93;;;;;;;0.77;69.37;102663.16;5001213;28;20049;-92
2022/03/01 00:03:38;;;;;;;20.30;13.30;;;;;;;0.76;68.18;102661.41;4994122;28;20058;-92
2022/03/01 00:06:03;;;;;;;23.42;13.50;;;;;;;0.76;67.94;102656.16;5010336;28;20589;-92
2022/03/01 00:08:29;;;;;;;23.10;13.45;;;;;;;0.77;67.53;102648.31;4983406;28;20018;-93
2022/03/01 00:10:54;;;;;;;23.08;13.30;;;;;;;0.71;68.95;102645.56;5001474;28;20034;-94
2022/03/01 00:13:19;;;;;;;22.00;13.07;;;;;;;0.71;68.84;102656.97;4990557;28;20034;-94
2022/03/01 00:15:45;;;;;;;20.33;12.63;;;;;;;0.72;67.92;102652.59;5011632;28;20034;-93
2022/03/01 00:18:11;;;;;;;21.63;13.38;;;;;;;0.68;68.26;102654.28;5012443;28;20029;-92
2022/03/01 00:20:36;;;;;;;23.00;14.20;;;;;;;0.64;68.61;102641.09;5006071;28;20072;-92
2022/03/01 00:23:02;;;;;;;25.60;13.52;;;;;;;0.66;68.85;102650.72;5013513;28;20105;-93
2022/03/01 00:25:27;;;;;;;21.52;13.00;;;;;;;0.64;68.18;102656.81;5011694;28;20080;-92
2022/03/01 00:27:52;;;;;;;22.83;13.70;;;;;;;0.62;68.71;102651.50;5028757;28;20029;-92
2022/03/01 00:30:18;;;;;;;22.95;13.50;;;;;;;0.60;69.15;102649.75;5015310;28;20042;-93
2022/03/01 00:32:43;;;;;;;22.42;12.40;;;;;;;0.54;69.04;102647.88;5004804;28;20527;-90
2022/03/01 00:35:08;;;;;;;24.23;13.57;;;;;;;0.49;69.17;102647.78;5032394;28;20171;-92
2022/03/01 00:37:34;;;;;;;22.15;13.32;;;;;;;0.46;69.71;102647.75;5033453;28;20018;-92
2022/03/01 00:39:59;;;;;;;22.67;13.80;;;;;;;0.46;69.83;102657.31;5030865;28;20018;-91
2022/03/01 00:42:24;;;;;;;22.75;12.43;;;;;;;0.41;68.94;102648.47;5028199;28;20014;-93
2022/03/01 00:44:49;;;;;;;22.50;12.48;;;;;;;0.49;68.07;102663.50;5017125;28;20124;-92
2022/03/01 00:47:15;;;;;;;22.48;13.02;;;;;;;0.52;68.40;102660.06;5012655;28;20569;-94
2022/03/01 00:49:40;;;;;;;21.23;12.63;;;;;;;0.51;68.44;102655.69;5008677;28;20021;-92
2022/03/01 00:52:05;;;;;;;21.67;13.10;;;;;;;0.45;68.99;102656.44;5015500;28;20030;-93
2022/03/01 00:54:31;;;;;;;23.27;14.25;;;;;;;0.38;69.96;102657.19;5017547;28;20091;-92
2022/03/01 00:56:56;;;;;;;22.85;13.38;;;;;;;0.32;69.57;102658.78;5010410;28;20034;-93
2022/03/01 00:59:21;;;;;;;21.25;13.32;;;;;;;0.26;70.63;102656.94;5005693;28;20095;-92
2022/03/01 01:01:47;;;;;;;22.48;13.70;;;;;;;0.21;70.98;102649.00;5016591;28;20026;-92
2022/03/01 01:04:12;;;;;;;24.98;14.32;;;;;;;0.14;70.76;102643.59;5016378;28;20029;-92
2022/03/01 01:06:37;;;;;;;24.58;14.07;;;;;;;0.12;71.26;102650.50;5016354;28;20037;-91
2022/03/01 01:09:03;;;;;;;24.05;14.48;;;;;;;0.06;71.04;102643.41;5014829;28;20034;-93
2022/03/01 01:11:28;;;;;;;24.38;14.52;;;;;;;0.08;70.77;102648.69;5016453;28;20415;-92
2022/03/01 01:13:54;;;;;;;24.70;14.52;;;;;;;0.02;70.41;102645.94;5012844;28;20053;-91
2022/03/01 01:16:20;;;;;;;22.08;13.48;;;;;;;-0.01;71.67;102645.00;5015803;28;20129;-91
2022/03/01 01:18:45;;;;;;;23.55;13.80;;;;;;;0.02;71.67;102649.44;5011197;28;20033;-91
2022/03/01 01:21:12;;;;;;;22.35;12.93;;;;;;;-0.01;71.25;102650.25;4996190;28;20034;-92
2022/03/01 01:23:38;;;;;;;24.83;14.40;;;;;;;-0.04;71.29;102647.59;5010434;28;20054;-91
2022/03/01 01:26:03;;;;;;;23.17;13.05;;;;;;;-0.05;71.74;102639.69;5002641;28;20055;-92
2022/03/01 01:28:28;;;;;;;26.05;14.25;;;;;;;-0.03;71.80;102648.47;5009206;28;20462;-91
2022/03/01 01:30:54;;;;;;;24.23;13.93;;;;;;;-0.12;71.83;102635.19;5009321;28;20076;-90
2022/03/01 01:33:20;;;;;;;24.35;14.13;;;;;;;-0.10;72.40;102643.94;5018238;28;20115;-91
2022/03/01 01:35:45;;;;;;;24.08;14.05;;;;;;;-0.11;71.82;102648.28;5023051;28;20388;-91
2022/03/01 01:38:11;;;;;;;26.58;14.18;;;;;;;-0.10;71.81;102642.19;5022347;28;20029;-92
2022/03/01 01:40:36;;;;;;;24.10;14.68;;;;;;;-0.12;71.98;102646.53;5019178;28;20030;-90
2022/03/01 01:43:03;;;;;;;24.05;14.18;;;;;;;-0.19;71.78;102641.13;5024478;28;20042;-91
2022/03/01 01:45:29;;;;;;;26.15;14.50;;;;;;;-0.19;72.80;102647.25;5033875;28;20032;-92
2022/03/01 01:47:57;;;;;;;21.83;13.38;;;;;;;-0.19;72.54;102652.47;5019070;28;20078;-92
2022/03/01 01:50:24;;;;;;;23.15;13.20;;;;;;;-0.19;72.21;102649.84;5016194;28;20022;-91
2022/03/01 01:52:50;;;;;;;24.92;14.18;;;;;;;-0.18;72.37;102646.38;5036056;28;20025;-92
2022/03/01 01:55:17;;;;;;;23.45;14.05;;;;;;;-0.19;72.35;102646.34;5036247;28;20030;-93
2022/03/01 01:57:42;;;;;;;25.65;14.43;;;;;;;-0.21;72.95;102635.84;5036860;28;20013;-92
2022/03/01 02:00:09;;;;;;;26.13;13.80;;;;;;;-0.26;72.90;102645.31;5032439;28;20029;-93
2022/03/01 02:02:35;;;;;;;25.25;14.93;;;;;;;-0.24;72.91;102640.16;5035619;28;20014;-92
2022/03/01 02:05:02;;;;;;;24.00;14.25;;;;;;;-0.25;73.25;102641.88;5035968;28;20320;-93
2022/03/01 02:07:27;;;;;;;26.92;14.20;;;;;;;-0.26;73.29;102647.94;5036851;28;20018;-89
2022/03/01 02:09:53;;;;;;;26.30;14.63;;;;;;;-0.28;72.98;102642.69;5021021;28;20062;-93
2022/03/01 02:12:18;;;;;;;27.02;14.82;;;;;;;-0.26;73.48;102640.09;5016720;28;20044;-92
2022/03/01 02:14:44;;;;;;;25.25;14.48;;;;;;;-0.25;73.32;102636.66;5027674;28;20088;-92
2022/03/01 02:17:10;;;;;;;23.63;14.35;;;;;;;-0.24;73.42;102635.78;5016596;28;20125;-92
2022/03/01 02:19:37;;;;;;;24.77;14.75;;;;;;;-0.20;72.21;102641.97;5006123;28;20037;-92
2022/03/01 02:22:05;;;;;;;27.52;14.50;;;;;;;-0.20;72.44;102635.00;4996932;28;20027;-91
2022/03/01 02:24:30;;;;;;;27.17;14.35;;;;;;;-0.14;72.49;102631.63;4996623;28;20023;-92
2022/03/01 02:26:58;;;;;;;29.92;15.40;;;;;;;-0.17;72.67;102637.66;4999042;28;20041;-92
2022/03/01 02:29:24;;;;;;;23.85;13.77;;;;;;;-0.20;73.09;102634.13;5012868;28;20026;-92
2022/03/01 02:31:51;;;;;;;24.77;13.80;;;;;;;-0.22;72.80;102636.69;5014085;28;20022;-91
2022/03/01 02:34:17;;;;;;;23.48;14.80;;;;;;;-0.26;72.66;102630.50;5013611;28;20096;-93
2022/03/01 02:36:42;;;;;;;25.55;14.38;;;;;;;-0.27;73.05;102639.22;5013540;28;20034;-92
2022/03/01 02:39:07;;;;;;;28.17;15.38;;;;;;;-0.31;73.62;102633.88;5008506;28;20030;-92
2022/03/01 02:41:37;;;;;;;28.42;14.90;;;;;;;-0.33;72.91;102632.97;5010771;28;20026;-91
2022/03/01 02:44:03;;;;;;;25.02;14.80;;;;;;;-0.35;72.64;102632.03;5003359;28;20102;-92
2022/03/01 02:46:28;;;;;;;25.73;15.20;;;;;;;-0.34;72.80;102633.78;5003328;28;20050;-93
2022/03/01 02:48:53;;;;;;;26.63;15.38;;;;;;;-0.37;73.72;102633.75;5011492;28;20060;-93
2022/03/01 02:51:18;;;;;;;25.17;14.13;;;;;;;-0.39;73.88;102630.19;5015228;28;20056;-93
2022/03/01 02:53:44;;;;;;;25.63;14.95;;;;;;;-0.46;73.74;102625.66;5015609;28;20129;-92
2022/03/01 02:56:09;;;;;;;25.83;14.48;;;;;;;-0.45;74.01;102630.06;5015217;28;20037;-92
2022/03/01 02:58:34;;;;;;;24.95;15.02;;;;;;;-0.47;74.28;102626.53;5009164;28;20404;-91
2022/03/01 03:00:59;;;;;;;29.13;16.20;;;;;;;-0.47;74.84;102614.31;5015924;28;20038;-90
2022/03/01 03:03:25;;;;;;;25.27;15.55;;;;;;;-0.44;74.71;102621.38;5016327;28;20108;-90
2022/03/01 03:05:50;;;;;;;28.10;15.15;;;;;;;-0.42;74.64;102617.03;5000421;28;20045;-91
2022/03/01 03:08:15;;;;;;;26.27;14.55;;;;;;;-0.40;73.77;102608.38;5015609;28;20022;-91
2022/03/01 03:10:41;;;;;;;25.15;14.82;;;;;;;-0.36;74.61;102606.72;5017919;28;20056;-91
2022/03/01 03:13:06;;;;;;;27.95;15.68;;;;;;;-0.29;73.37;102598.19;5024324;28;20025;-92
2022/03/01 03:15:31;;;;;;;29.73;15.75;;;;;;;-0.19;73.06;102601.88;5034785;28;20033;-92
2022/03/01 03:17:58;;;;;;;28.45;15.63;;;;;;;-0.16;73.57;102600.19;5033493;28;20013;-91
2022/03/01 03:20:23;;;;;;;26.73;15.35;;;;;;;-0.18;73.73;102604.50;5034612;28;20057;-91
2022/03/01 03:22:49;;;;;;;26.40;14.55;;;;;;;-0.12;73.46;102612.50;5034510;28;20014;-91
2022/03/01 03:25:15;;;;;;;26.27;14.30;;;;;;;-0.11;73.55;102608.16;5032432;28;20018;-91
2022/03/01 03:27:40;;;;;;;29.88;15.05;;;;;;;-0.09;73.81;102609.94;5032073;28;20013;-91
2022/03/01 03:30:07;;;;;;;28.38;14.95;;;;;;;-0.08;73.38;102609.09;5028684;28;20046;-92
2022/03/01 03:32:33;;;;;;;25.70;13.85;;;;;;;-0.08;72.68;102608.22;5012796;28;20036;-92
2022/03/01 03:34:58;;;;;;;24.70;14.50;;;;;;;-0.07;72.95;102604.75;5002955;28;20085;-91
2022/03/01 03:37:24;;;;;;;29.05;15.23;;;;;;;-0.06;72.88;102604.78;5002888;28;20085;-90
2022/03/01 03:39:49;;;;;;;26.83;15.02;;;;;;;-0.06;73.02;102598.66;5014434;28;20053;-90
2022/03/01 03:42:14;;;;;;;26.70;15.38;;;;;;;-0.08;73.35;102592.53;5015038;28;20033;-91
2022/03/01 03:44:40;;;;;;;26.27;14.82;;;;;;;-0.06;73.58;102610.00;5014429;28;20026;-91
2022/03/01 03:47:06;;;;;;;25.77;15.75;;;;;;;-0.09;73.47;102603.81;5013273;28;20119;-92
2022/03/01 03:49:31;;;;;;;29.52;16.33;;;;;;;-0.13;73.30;102602.88;4995823;28;20031;-92
2022/03/01 03:51:57;;;;;;;27.60;15.73;;;;;;;-0.18;73.64;102601.00;5012218;28;20040;-92
2022/03/01 03:54:22;;;;;;;29.02;15.23;;;;;;;-0.28;73.70;102587.72;4980654;28;20036;-93
2022/03/01 03:56:48;;;;;;;29.38;15.48;;;;;;;-0.22;73.16;102602.66;4994566;28;20025;-92
2022/03/01 03:59:13;;;;;;;24.90;14.88;;;;;;;-0.21;73.31;102598.31;5011176;28;20073;-92
2022/03/01 04:01:38;;;;;;;27.90;16.17;;;;;;;-0.24;73.51;102598.28;5012661;28;20040;-92
2022/03/01 04:04:04;;;;;;;28.80;16.42;;;;;;;-0.28;73.64;102600.81;5008157;28;20396;-92
2022/03/01 04:06:29;;;;;;;25.90;15.68;;;;;;;-0.30;73.41;102601.63;5001472;28;20036;-91
2022/03/01 04:08:55;;;;;;;24.65;14.43;;;;;;;-0.30;73.66;102604.25;5010747;28;20040;-91
2022/03/01 04:11:20;;;;;;;26.95;15.50;;;;;;;-0.33;74.02;102594.59;5013320;28;20026;-91
2022/03/01 04:13:46;;;;;;;28.20;15.32;;;;;;;-0.32;73.22;102596.38;5013690;28;20471;-89
2022/03/01 04:16:11;;;;;;;27.52;16.20;;;;;;;-0.34;74.38;102599.78;4992123;28;20042;-89
2022/03/01 04:18:36;;;;;;;26.95;15.00;;;;;;;-0.32;74.02;102605.94;5007468;28;20487;-91
2022/03/01 04:21:04;;;;;;;27.65;15.63;;;;;;;-0.32;74.45;102596.38;5010129;28;20026;-91
2022/03/01 04:23:29;;;;;;;28.98;15.20;;;;;;;-0.30;74.32;102599.88;5015992;28;20044;-92
2022/03/01 04:25:55;;;;;;;27.30;15.40;;;;;;;-0.32;73.71;102591.13;5014520;28;20411;-90
2022/03/01 04:28:20;;;;;;;28.55;15.35;;;;;;;-0.24;74.19;102607.00;5000743;28;20034;-90
2022/03/01 04:30:45;;;;;;;31.88;16.13;;;;;;;-0.18;72.85;102601.00;5017986;28;20030;-91
2022/03/01 04:33:10;;;;;;;27.48;14.77;;;;;;;-0.14;72.84;102611.56;5013431;28;20076;-91
2022/03/01 04:35:36;;;;;;;26.48;15.90;;;;;;;-0.08;73.15;102611.72;5005913;28;20105;-91
2022/03/01 04:38:01;;;;;;;26.70;16.20;;;;;;;-0.03;73.37;102614.44;5030704;28;20022;-91
2022/03/01 04:40:27;;;;;;;27.55;15.18;;;;;;;0.01;73.00;102618.88;5020412;28;20045;-90
2022/03/01 04:42:52;;;;;;;28.38;15.60;;;;;;;0.04;71.92;102613.69;5037306;28;20022;-91
2022/03/01 04:45:17;;;;;;;26.45;14.35;;;;;;;0.07;71.81;102603.28;5038089;28;20018;-92
2022/03/01 04:47:43;;;;;;;29.67;15.32;;;;;;;0.13;70.92;102613.91;5025402;28;20038;-89
2022/03/01 04:50:08;;;;;;;25.27;15.52;;;;;;;0.18;71.67;102616.63;5016659;28;20033;-91
2022/03/01 04:52:34;;;;;;;26.20;15.93;;;;;;;0.21;71.21;102620.19;5018028;28;20036;-89
2022/03/01 04:54:59;;;;;;;29.75;16.50;;;;;;;0.18;71.57;102604.41;5018230;28;20041;-91
2022/03/01 04:57:25;;;;;;;24.50;15.13;;;;;;;0.23;70.96;102617.56;5019557;28;20033;-92
2022/03/01 04:59:50;;;;;;;26.85;14.85;;;;;;;0.26;70.46;102616.78;5019692;28;20022;-89
2022/03/01 05:02:15;;;;;;;27.38;14.13;;;;;;;0.28;70.74;102610.69;5018069;28;20114;-91
2022/03/01 05:04:40;;;;;;;26.95;16.25;;;;;;;0.29;70.52;102612.44;5018055;28;20066;-91
2022/03/01 05:07:06;;;;;;;28.70;15.60;;;;;;;0.30;70.93;102598.53;4988290;28;20029;-91
2022/03/01 05:09:33;;;;;;;25.52;14.88;;;;;;;0.30;70.56;102593.28;5000826;28;20030;-92
2022/03/01 05:11:58;;;;;;;26.40;15.55;;;;;;;0.32;70.88;102609.03;5000273;28;20033;-91
2022/03/01 05:14:24;;;;;;;24.90;15.18;;;;;;;0.32;70.58;102596.81;5020642;28;20030;-91
2022/03/01 05:16:49;;;;;;;27.15;14.85;;;;;;;0.29;70.50;102591.50;5019034;28;20424;-90
2022/03/01 05:19:15;;;;;;;27.38;15.65;;;;;;;0.29;71.29;102596.72;5001738;28;20025;-91
2022/03/01 05:21:41;;;;;;;26.20;14.50;;;;;;;0.31;72.53;102588.94;5019057;28;20424;-91
2022/03/01 05:24:06;;;;;;;27.40;15.57;;;;;;;0.25;71.45;102581.81;5026033;28;20026;-91
2022/03/01 05:26:32;;;;;;;26.75;15.65;;;;;;;0.28;71.06;102596.72;5029511;28;20043;-92
2022/03/01 05:28:57;;;;;;;27.73;14.98;;;;;;;0.27;70.92;102584.47;5030957;28;20044;-91
2022/03/01 05:31:23;;;;;;;28.55;15.68;;;;;;;0.23;71.19;102586.16;5036546;28;20045;-90
2022/03/01 05:33:49;;;;;;;26.45;14.75;;;;;;;0.16;70.99;102579.03;5033732;28;20022;-91
2022/03/01 05:36:15;;;;;;;26.20;15.38;;;;;;;0.23;70.13;102594.88;5034149;28;20042;-91
2022/03/01 05:38:41;;;;;;;28.63;15.23;;;;;;;0.20;70.56;102592.19;5033068;28;20061;-91
2022/03/01 05:41:06;;;;;;;25.23;15.18;;;;;;;0.17;70.66;102593.91;5037084;28;20040;-92
2022/03/01 05:43:32;;;;;;;26.92;16.13;;;;;;;0.13;70.12;102590.34;5036614;28;20648;-91
2022/03/01 05:45:58;;;;;;;27.83;15.65;;;;;;;0.11;70.88;102588.53;5036462;28;20049;-90
2022/03/01 05:48:23;;;;;;;26.67;16.27;;;;;;;0.08;71.55;102588.47;5020741;28;20037;-90
2022/03/01 05:50:48;;;;;;;26.00;15.45;;;;;;;0.04;71.47;102584.00;5013771;28;20502;-90
2022/03/01 05:53:15;;;;;;;24.48;14.65;;;;;;;-0.01;71.12;102573.44;5016382;28;20022;-91
2022/03/01 05:55:40;;;;;;;24.63;15.50;;;;;;;-0.10;71.13;102560.19;4999862;28;20026;-90
2022/03/01 05:58:05;;;;;;;27.13;14.65;;;;;;;-0.02;71.21;102577.81;5016107;28;20034;-91
2022/03/01 06:00:31;;;;;;;25.55;15.45;;;;;;;0.01;70.44;102577.00;5017567;28;20117;-92
2022/03/01 06:02:56;;;;;;;27.50;15.27;;;;;;;0.01;71.17;102574.38;5020458;28;20022;-91
2022/03/01 06:05:21;;;;;;;26.38;15.80;;;;;;;0.01;71.35;102570.88;5015137;28;20026;-90
2022/03/01 06:07:47;;;;;;;29.98;16.75;;;;;;;0.03;70.75;102577.91;5001999;28;20034;-89
2022/03/01 06:10:13;;;;;;;26.65;15.30;;;;;;;0.02;70.77;102570.03;5000629;28;20064;-88
2022/03/01 06:12:39;;;;;;;26.75;16.25;;;;;;;0.00;71.67;102577.84;5034743;28;20037;-89
2022/03/01 06:15:05;;;;;;;26.58;15.13;;;;;;;-0.03;71.38;102572.56;5036134;28;20029;-90
2022/03/01 06:17:30;;;;;;;31.50;15.90;;;;;;;-0.09;71.75;102573.28;5026713;28;20022;-91
2022/03/01 06:19:56;;;;;;;27.02;15.57;;;;;;;-0.15;71.88;102570.56;5032657;28;20037;-91
2022/03/01 06:22:21;;;;;;;27.48;16.33;;;;;;;-0.20;72.56;102571.31;5035496;28;20022;-91
2022/03/01 06:24:47;;;;;;;27.58;15.48;;;;;;;-0.24;72.87;102567.75;5037463;28;20033;-91
2022/03/01 06:27:12;;;;;;;28.25;16.08;;;;;;;-0.30;73.12;102567.59;5029097;28;20010;-92
2022/03/01 06:29:38;;;;;;;30.33;15.98;;;;;;;-0.29;73.57;102567.66;5030389;28;20030;-92
2022/03/01 06:32:05;;;;;;;26.00;15.25;;;;;;;-0.30;73.26;102568.47;5021514;28;20022;-92
2022/03/01 06:34:31;;;;;;;27.55;16.83;;;;;;;-0.29;73.71;102572.91;5001163;28;20108;-90
2022/03/01 06:36:56;;;;;;;27.05;15.85;;;;;;;-0.29;74.10;102575.50;4998847;28;20038;-92
2022/03/01 06:39:21;;;;;;;28.23;16.33;;;;;;;-0.32;72.90;102567.59;4995657;28;20432;-91
2022/03/01 06:41:47;;;;;;;27.38;16.85;;;;;;;-0.32;73.13;102569.31;4995199;28;20038;-89
2022/03/01 06:44:12;;;;;;;25.40;15.60;;;;;;;-0.28;72.97;102582.50;4994127;28;20028;-93
2022/03/01 06:46:38;;;;;;;29.02;15.65;;;;;;;-0.29;73.27;102585.97;4981394;28;20052;-93
2022/03/01 06:49:03;;;;;;;27.63;15.48;;;;;;;-0.21;73.17;102596.56;5005325;28;20026;-94
2022/03/01 06:51:28;;;;;;;27.35;16.83;;;;;;;-0.20;72.15;102595.75;5000044;28;20110;-93
2022/03/01 06:53:54;;;;;;;28.40;16.20;;;;;;;-0.17;72.60;102601.03;5013811;28;20388;-93
2022/03/01 06:56:19;;;;;;;28.92;15.77;;;;;;;-0.10;72.32;102602.94;5005420;28;20030;-94
2022/03/01 06:58:44;;;;;;;27.70;15.98;;;;;;;-0.08;72.77;102593.41;5004995;28;20101;-93
2022/03/01 07:01:10;;;;;;;30.60;16.48;;;;;;;-0.01;72.43;102600.50;5003101;28;20375;-93
2022/03/01 07:03:35;;;;;;;28.75;16.92;;;;;;;0.08;72.74;102606.78;5011027;28;20037;-93
2022/03/01 07:06:01;;;;;;;28.73;15.95;;;;;;;0.11;72.82;102604.25;5011167;28;20511;-93
2022/03/01 07:08:26;;;;;;;31.52;17.02;;;;;;;0.26;71.91;102622.88;5006609;28;20502;-92
2022/03/01 07:10:52;;;;;;;29.45;16.00;;;;;;;0.38;72.27;102617.91;5005167;28;20638;-93
2022/03/01 07:13:18;;;;;;;28.60;16.83;;;;;;;0.45;71.07;102611.00;5008680;28;20029;-93
2022/03/01 07:15:43;;;;;;;26.10;15.32;;;;;;;0.59;70.46;102622.66;4981942;28;20439;-94
2022/03/01 07:18:09;;;;;;;28.52;17.42;;;;;;;0.65;70.09;102611.41;5009393;28;20483;-92
2022/03/01 07:20:35;;;;;;;29.00;16.23;;;;;;;0.77;69.98;102624.72;5005903;28;20071;-92
2022/03/01 07:23:01;;;;;;;29.67;16.38;;;;;;;0.83;69.92;102619.56;5025687;28;20050;-91
2022/03/01 07:25:26;;;;;;;28.80;16.95;;;;;;;0.97;70.30;102631.22;5025600;28;20025;-92
2022/03/01 07:27:53;;;;;;;29.80;16.13;;;;;;;1.01;68.42;102613.78;5032863;28;20081;-93
2022/03/01 07:30:20;;;;;;;27.20;16.27;;;;;;;1.10;68.29;102613.94;5033769;28;20045;-92
2022/03/01 07:32:46;;;;;;;28.55;16.25;;;;;;;1.23;68.20;102618.53;5015606;28;20022;-92
2022/03/01 07:35:11;;;;;;;31.23;17.15;;;;;;;1.31;68.16;102618.66;5034009;28;20064;-90
2022/03/01 07:37:37;;;;;;;30.08;16.25;;;;;;;1.45;68.05;102622.34;4995524;28;20030;-89
2022/03/01 07:40:07;;;;;;;24.85;15.35;;;;;;;1.54;67.57;102623.34;5012504;28;20510;-89
2022/03/01 07:42:32;;;;;;;29.92;16.17;;;;;;;1.63;67.39;102634.88;4995339;28;20018;-90
2022/03/01 07:44:57;;;;;;;28.65;16.88;;;;;;;1.68;66.86;102632.31;5012454;28;20472;-90
2022/03/01 07:47:23;;;;;;;29.15;16.27;;;;;;;1.77;67.60;102637.69;5011905;28;20029;-90
2022/03/01 07:49:49;;;;;;;27.20;16.50;;;;;;;1.87;67.91;102647.47;5011350;28;20018;-91
2022/03/01 07:52:14;;;;;;;24.67;15.57;;;;;;;1.98;67.42;102652.88;5010942;28;20041;-91
2022/03/01 07:54:39;;;;;;;27.70;15.32;;;;;;;2.04;67.33;102650.31;5008558;28;20034;-92
2022/03/01 07:57:05;;;;;;;27.55;15.65;;;;;;;2.12;66.57;102639.91;5006876;28;20037;-90
2022/03/01 07:59:30;;;;;;;27.90;16.00;;;;;;;2.10;66.10;102639.91;5006202;28;20103;-87
2022/03/01 08:01:55;;;;;;;26.95;15.73;;;;;;;2.07;65.87;102631.09;5016743;28;20041;-89
2022/03/01 08:04:21;;;;;;;26.92;15.77;;;;;;;2.03;65.97;102630.16;5017568;28;20415;-92
2022/03/01 08:06:46;;;;;;;27.85;15.82;;;;;;;1.99;65.68;102634.50;5007500;28;20530;-90
2022/03/01 08:09:11;;;;;;;27.90;15.90;;;;;;;1.96;65.76;102626.56;5014198;28;20040;-89
2022/03/01 08:11:37;;;;;;;28.52;15.15;;;;;;;1.93;66.37;102630.94;5022582;28;20106;-90
2022/03/01 08:14:02;;;;;;;29.17;15.23;;;;;;;1.85;66.75;102630.81;5017297;28;20053;-89
2022/03/01 08:16:28;;;;;;;29.27;15.52;;;;;;;1.87;67.14;102644.84;5013992;28;20086;-87
2022/03/01 08:18:53;;;;;;;27.08;15.15;;;;;;;1.88;66.75;102637.84;5011830;28;20030;-88
2022/03/01 08:21:19;;;;;;;26.25;16.00;;;;;;;1.92;66.93;102632.66;5008098;28;20036;-86
2022/03/01 08:23:44;;;;;;;32.25;17.17;;;;;;;1.98;66.71;102634.50;5000892;28;20025;-88
2022/03/01 08:26:09;;;;;;;29.92;16.65;;;;;;;2.08;66.30;102633.72;5000595;28;20030;-88
2022/03/01 08:28:35;;;;;;;23.98;15.32;;;;;;;2.18;66.14;102626.88;4995312;28;20030;-88
2022/03/01 08:31:00;;;;;;;26.20;16.15;;;;;;;2.27;66.19;102632.22;4999626;28;20545;-86
2022/03/01 08:33:25;;;;;;;26.90;15.55;;;;;;;2.40;66.66;102625.38;4996861;28;20022;-85
2022/03/01 08:35:52;;;;;;;28.35;15.85;;;;;;;2.58;65.94;102635.19;5009478;28;20102;-89
2022/03/01 08:38:17;;;;;;;27.85;15.15;;;;;;;2.71;65.57;102637.97;5009470;28;20030;-88
2022/03/01 08:40:43;;;;;;;24.50;16.05;;;;;;;2.89;65.13;102644.28;4987186;28;20041;-89
2022/03/01 08:43:12;;;;;;;24.63;15.70;;;;;;;2.91;64.42;102632.03;5014630;28;20092;-90
2022/03/01 08:45:38;;;;;;;28.77;15.20;;;;;;;2.97;63.40;102634.72;5004833;28;20033;-91
2022/03/01 08:48:04;;;;;;;23.58;15.02;;;;;;;2.93;64.13;102633.81;4999337;28;20445;-91
2022/03/01 08:50:31;;;;;;;30.27;15.05;;;;;;;2.90;64.34;102623.25;4999558;28;20026;-91
2022/03/01 08:52:56;;;;;;;25.25;14.57;;;;;;;2.98;64.59;102621.59;5016089;28;20088;-92
2022/03/01 08:55:21;;;;;;;26.48;15.00;;;;;;;3.08;64.39;102627.78;5008745;28;20034;-91
2022/03/01 08:57:47;;;;;;;25.25;14.93;;;;;;;3.18;63.70;102634.03;5025776;28;20022;-93
2022/03/01 09:00:14;;;;;;;27.83;16.45;;;;;;;3.31;63.98;102632.38;5030175;28;20025;-90
2022/03/01 09:02:39;;;;;;;27.10;15.77;;;;;;;3.60;63.13;102648.38;5020766;28;20075;-91
2022/03/01 09:05:05;;;;;;;25.55;14.75;;;;;;;3.81;63.00;102645.88;5033664;28;20289;-92
2022/03/01 09:07:32;;;;;;;25.38;14.65;;;;;;;4.09;61.23;102646.03;5039862;28;20049;-92
2022/03/01 09:09:57;;;;;;;25.00;14.73;;;;;;;4.38;61.66;102652.28;5035139;28;20030;-93
2022/03/01 09:12:22;;;;;;;24.70;14.80;;;;;;;4.79;61.01;102658.56;5007919;28;20022;-93
2022/03/01 09:14:47;;;;;;;25.05;14.88;;;;;;;5.18;59.18;102653.38;5011215;28;20029;-93
2022/03/01 09:17:13;;;;;;;23.13;14.20;;;;;;;5.56;57.64;102662.13;5033312;28;20438;-91
2022/03/01 09:19:38;;;;;;;22.80;14.40;;;;;;;5.94;55.87;102657.69;5038693;28;20045;-92
2022/03/01 09:22:03;;;;;;;22.70;14.02;;;;;;;6.10;54.46;102661.16;5038093;28;20061;-93
2022/03/01 09:24:29;;;;;;;22.48;14.43;;;;;;;6.32;55.29;102667.28;5037524;28;20093;-92
2022/03/01 09:26:57;;;;;;;24.08;14.23;;;;;;;6.55;54.12;102650.41;5031349;28;20022;-92
2022/03/01 09:29:22;;;;;;;24.52;14.82;;;;;;;6.79;54.06;102660.84;5022489;28;20082;-93
2022/03/01 09:31:47;;;;;;;20.50;14.48;;;;;;;6.86;52.85;102656.41;5033327;28;20235;-93
2022/03/01 09:34:13;;;;;;;23.38;14.50;;;;;;;6.78;52.68;102658.22;5044028;28;20064;-89
2022/03/01 09:36:38;;;;;;;25.40;14.57;;;;;;;6.65;53.70;102658.28;5033716;28;20030;-93
2022/03/01 09:39:03;;;;;;;22.15;14.00;;;;;;;6.51;53.48;102657.47;5028950;28;20037;-94
2022/03/01 09:41:32;;;;;;;22.35;13.63;;;;;;;6.35;53.15;102661.94;5027078;28;20018;-91
2022/03/01 09:43:58;;;;;;;23.35;13.85;;;;;;;6.29;53.28;102661.09;5019100;28;20025;-92
2022/03/01 09:46:24;;;;;;;20.85;13.40;;;;;;;6.19;53.29;102655.88;5020089;28;20077;-91
2022/03/01 09:48:50;;;;;;;22.95;14.07;;;;;;;6.21;53.97;102654.06;5021185;28;20025;-90
2022/03/01 09:51:16;;;;;;;21.42;14.38;;;;;;;6.18;53.48;102662.00;5012457;28;20100;-92
2022/03/01 09:53:42;;;;;;;25.25;15.20;;;;;;;6.19;52.91;102662.91;5027690;28;20372;-93
2022/03/01 09:56:08;;;;;;;20.65;13.32;;;;;;;6.19;52.66;102661.16;5035821;28;20057;-93
2022/03/01 09:58:34;;;;;;;20.90;14.35;;;;;;;6.18;52.92;102656.72;5047823;28;20041;-93
2022/03/01 10:00:59;;;;;;;25.75;14.95;;;;;;;6.24;53.23;102663.78;5032587;28;20039;-94
2022/03/01 10:03:28;;;;;;;21.65;13.90;;;;;;;6.34;51.38;102649.63;5029420;28;20010;-95
2022/03/01 10:05:53;;;;;;;22.48;13.70;;;;;;;6.39;52.05;102645.19;5019645;28;20018;-94
2022/03/01 10:08:20;;;;;;;21.70;13.27;;;;;;;6.56;52.72;102653.03;5018835;28;20057;-94
2022/03/01 10:10:51;;;;;;;20.92;13.73;;;;;;;6.77;51.66;102659.97;5017691;28;20434;-95
2022/03/01 10:13:27;;;;;;;21.42;13.38;;;;;;;7.03;51.05;102662.47;4992414;28;20058;-93
2022/03/01 10:16:02;;;;;;;22.35;13.77;;;;;;;7.26;50.85;102670.22;5004496;28;20589;-94
2022/03/01 10:18:31;;;;;;;20.92;13.02;;;;;;;7.36;50.06;102671.91;4989501;28;20045;-92
2022/03/01 10:21:09;;;;;;;21.75;13.70;;;;;;;7.36;49.45;102669.28;5010120;28;20022;-90
2022/03/01 10:23:34;;;;;;;20.00;13.10;;;;;;;7.37;48.56;102667.50;4990086;28;20089;-91
2022/03/01 10:26:17;;;;;;;22.98;14.20;;;;;;;7.54;49.34;102664.69;4991972;28;20038;-90
2022/03/01 10:28:44;;;;;;;21.65;13.65;;;;;;;7.66;48.36;102661.94;5005689;28;20503;-91
2022/03/01 10:31:10;;;;;;;24.00;14.13;;;;;;;7.80;47.60;102664.44;5006209;28;20040;-92
2022/03/01 10:33:35;;;;;;;22.17;14.45;;;;;;;7.89;48.49;102659.03;4986793;28;20121;-92
2022/03/01 10:36:00;;;;;;;21.65;13.68;;;;;;;8.04;48.35;102653.56;4990983;28;20535;-93
2022/03/01 10:38:26;;;;;;;20.15;13.48;;;;;;;8.43;48.84;102649.56;4997292;28;20491;-91
2022/03/01 10:40:59;;;;;;;25.05;15.05;;;;;;;8.91;46.66;102644.47;5003381;28;20113;-92
2022/03/01 10:43:26;;;;;;;19.95;13.80;;;;;;;9.21;46.29;102647.56;5003005;28;20103;-92
2022/03/01 10:45:52;;;;;;;20.48;13.32;;;;;;;9.70;44.28;102644.94;5002588;28;20455;-92
2022/03/01 10:48:29;;;;;;;25.30;13.43;;;;;;;10.28;44.35;102640.25;4988549;28;20101;-92
2022/03/01 10:51:08;;;;;;;20.38;14.07;;;;;;;10.62;43.51;102644.88;5002240;28;20456;-92
2022/03/01 10:53:39;;;;;;;22.45;13.10;;;;;;;10.26;42.73;102647.41;5005647;28;20034;-91
2022/03/01 10:56:13;;;;;;;21.38;13.73;;;;;;;10.10;43.99;102654.78;5001292;28;20128;-91
2022/03/01 10:58:41;;;;;;;22.77;12.95;;;;;;;9.87;42.93;102649.94;5004482;28;20479;-91
2022/03/01 11:01:07;;;;;;;20.33;13.98;;;;;;;9.91;44.60;102662.25;4983010;28;20045;-91
2022/03/01 11:03:33;;;;;;;22.95;14.30;;;;;;;9.90;43.27;102660.47;5001966;28;20113;-91
2022/03/01 11:05:58;;;;;;;23.30;13.82;;;;;;;9.84;44.36;102649.97;5000195;28;20125;-92
2022/03/01 11:08:35;;;;;;;21.88;14.07;;;;;;;10.11;44.98;102667.16;4987042;28;20033;-93